<?xml version="1.0" encoding="UTF-8" standalone="no" ?>
<gpx xmlns="http://www.topografix.com/GPX/1/1" xmlns:xsi="http://www.w3.org/2001/XMLSchema-instance" xsi:schemaLocation="http://www.topografix.com/GPX/1/1 http://www.topografix.com/GPX/1/1/gpx.xsd" version="1.1" creator="VisuGPX - https://www.visugpx.com">
  <metadata>
    <name>De Meillerie à Salvigny</name>
    <desc><![CDATA[Randonnée en Haute-Savoie]]></desc>
  </metadata>
  <trk>
    <name><![CDATA[ACTIVE LOG: 30 JUL 2015 07:36]]></name>
    <trkseg>
      <trkpt lat="46.05566" lon="6.77555">
        <ele>765.83</ele>
        <time>2015-07-30T05:37:43Z</time>
      </trkpt>
      <trkpt lat="46.05556" lon="6.77572">
        <ele>764.39</ele>
        <time>2015-07-30T05:38:48Z</time>
      </trkpt>
      <trkpt lat="46.0551" lon="6.77577">
        <ele>765.35</ele>
        <time>2015-07-30T05:39:53Z</time>
      </trkpt>
      <trkpt lat="46.05502" lon="6.77654">
        <ele>763.42</ele>
        <time>2015-07-30T05:40:58Z</time>
      </trkpt>
      <trkpt lat="46.0554" lon="6.77728">
        <ele>766.79</ele>
        <time>2015-07-30T05:42:03Z</time>
      </trkpt>
      <trkpt lat="46.05581" lon="6.77781">
        <ele>769.19</ele>
        <time>2015-07-30T05:43:08Z</time>
      </trkpt>
      <trkpt lat="46.05606" lon="6.77885">
        <ele>774.48</ele>
        <time>2015-07-30T05:44:13Z</time>
      </trkpt>
      <trkpt lat="46.05565" lon="6.7799">
        <ele>778.32</ele>
        <time>2015-07-30T05:45:18Z</time>
      </trkpt>
      <trkpt lat="46.0558" lon="6.78089">
        <ele>777.36</ele>
        <time>2015-07-30T05:46:23Z</time>
      </trkpt>
      <trkpt lat="46.05586" lon="6.78197">
        <ele>772.56</ele>
        <time>2015-07-30T05:47:28Z</time>
      </trkpt>
      <trkpt lat="46.05637" lon="6.78301">
        <ele>772.08</ele>
        <time>2015-07-30T05:48:33Z</time>
      </trkpt>
      <trkpt lat="46.05707" lon="6.78324">
        <ele>771.6</ele>
        <time>2015-07-30T05:49:38Z</time>
      </trkpt>
      <trkpt lat="46.05787" lon="6.78301">
        <ele>771.6</ele>
        <time>2015-07-30T05:50:43Z</time>
      </trkpt>
      <trkpt lat="46.05796" lon="6.78364">
        <ele>771.11</ele>
        <time>2015-07-30T05:51:48Z</time>
      </trkpt>
      <trkpt lat="46.05791" lon="6.78478">
        <ele>773.04</ele>
        <time>2015-07-30T05:52:53Z</time>
      </trkpt>
      <trkpt lat="46.05746" lon="6.78544">
        <ele>775.44</ele>
        <time>2015-07-30T05:53:58Z</time>
      </trkpt>
      <trkpt lat="46.05727" lon="6.786">
        <ele>785.05</ele>
        <time>2015-07-30T05:55:03Z</time>
      </trkpt>
      <trkpt lat="46.05714" lon="6.78607">
        <ele>801.88</ele>
        <time>2015-07-30T05:56:08Z</time>
      </trkpt>
      <trkpt lat="46.05722" lon="6.78664">
        <ele>809.57</ele>
        <time>2015-07-30T05:57:13Z</time>
      </trkpt>
      <trkpt lat="46.05743" lon="6.78729">
        <ele>811.97</ele>
        <time>2015-07-30T05:58:18Z</time>
      </trkpt>
      <trkpt lat="46.05768" lon="6.78795">
        <ele>811.49</ele>
        <time>2015-07-30T05:59:23Z</time>
      </trkpt>
      <trkpt lat="46.0579" lon="6.78883">
        <ele>811.97</ele>
        <time>2015-07-30T06:00:28Z</time>
      </trkpt>
      <trkpt lat="46.05805" lon="6.7896">
        <ele>811.01</ele>
        <time>2015-07-30T06:01:33Z</time>
      </trkpt>
      <trkpt lat="46.05818" lon="6.79024">
        <ele>810.05</ele>
        <time>2015-07-30T06:02:38Z</time>
      </trkpt>
      <trkpt lat="46.05808" lon="6.7903">
        <ele>811.01</ele>
        <time>2015-07-30T06:03:43Z</time>
      </trkpt>
      <trkpt lat="46.05837" lon="6.79035">
        <ele>812.45</ele>
        <time>2015-07-30T06:04:48Z</time>
      </trkpt>
      <trkpt lat="46.05877" lon="6.79099">
        <ele>812.93</ele>
        <time>2015-07-30T06:05:53Z</time>
      </trkpt>
      <trkpt lat="46.05924" lon="6.79183">
        <ele>812.93</ele>
        <time>2015-07-30T06:06:58Z</time>
      </trkpt>
      <trkpt lat="46.05951" lon="6.79237">
        <ele>811.49</ele>
        <time>2015-07-30T06:08:03Z</time>
      </trkpt>
      <trkpt lat="46.06015" lon="6.79356">
        <ele>816.3</ele>
        <time>2015-07-30T06:09:08Z</time>
      </trkpt>
      <trkpt lat="46.06005" lon="6.79453">
        <ele>824.47</ele>
        <time>2015-07-30T06:10:13Z</time>
      </trkpt>
      <trkpt lat="46.06033" lon="6.79533">
        <ele>830.24</ele>
        <time>2015-07-30T06:11:18Z</time>
      </trkpt>
      <trkpt lat="46.06066" lon="6.79609">
        <ele>834.08</ele>
        <time>2015-07-30T06:12:23Z</time>
      </trkpt>
      <trkpt lat="46.06084" lon="6.7966">
        <ele>839.85</ele>
        <time>2015-07-30T06:13:28Z</time>
      </trkpt>
      <trkpt lat="46.06118" lon="6.79688">
        <ele>844.66</ele>
        <time>2015-07-30T06:14:33Z</time>
      </trkpt>
      <trkpt lat="46.06169" lon="6.7968">
        <ele>846.58</ele>
        <time>2015-07-30T06:15:38Z</time>
      </trkpt>
      <trkpt lat="46.06205" lon="6.79658">
        <ele>846.1</ele>
        <time>2015-07-30T06:16:43Z</time>
      </trkpt>
      <trkpt lat="46.0624" lon="6.79683">
        <ele>847.06</ele>
        <time>2015-07-30T06:17:48Z</time>
      </trkpt>
      <trkpt lat="46.06291" lon="6.79737">
        <ele>845.62</ele>
        <time>2015-07-30T06:18:53Z</time>
      </trkpt>
      <trkpt lat="46.06336" lon="6.79801">
        <ele>845.14</ele>
        <time>2015-07-30T06:19:58Z</time>
      </trkpt>
      <trkpt lat="46.0637" lon="6.79801">
        <ele>837.93</ele>
        <time>2015-07-30T06:21:03Z</time>
      </trkpt>
      <trkpt lat="46.06394" lon="6.79854">
        <ele>836</ele>
        <time>2015-07-30T06:22:08Z</time>
      </trkpt>
      <trkpt lat="46.06423" lon="6.79935">
        <ele>829.76</ele>
        <time>2015-07-30T06:23:13Z</time>
      </trkpt>
      <trkpt lat="46.06472" lon="6.80021">
        <ele>829.27</ele>
        <time>2015-07-30T06:24:18Z</time>
      </trkpt>
      <trkpt lat="46.06514" lon="6.80095">
        <ele>830.24</ele>
        <time>2015-07-30T06:25:23Z</time>
      </trkpt>
      <trkpt lat="46.06547" lon="6.80159">
        <ele>830.24</ele>
        <time>2015-07-30T06:26:28Z</time>
      </trkpt>
      <trkpt lat="46.06593" lon="6.80234">
        <ele>831.2</ele>
        <time>2015-07-30T06:27:33Z</time>
      </trkpt>
      <trkpt lat="46.06649" lon="6.80305">
        <ele>831.68</ele>
        <time>2015-07-30T06:28:38Z</time>
      </trkpt>
      <trkpt lat="46.06665" lon="6.80362">
        <ele>832.64</ele>
        <time>2015-07-30T06:29:43Z</time>
      </trkpt>
      <trkpt lat="46.06719" lon="6.80391">
        <ele>834.56</ele>
        <time>2015-07-30T06:30:48Z</time>
      </trkpt>
      <trkpt lat="46.06746" lon="6.80485">
        <ele>835.52</ele>
        <time>2015-07-30T06:31:53Z</time>
      </trkpt>
      <trkpt lat="46.06773" lon="6.80545">
        <ele>836.48</ele>
        <time>2015-07-30T06:32:58Z</time>
      </trkpt>
      <trkpt lat="46.06761" lon="6.80552">
        <ele>835.52</ele>
        <time>2015-07-30T06:34:03Z</time>
      </trkpt>
      <trkpt lat="46.06765" lon="6.80565">
        <ele>836</ele>
        <time>2015-07-30T06:35:08Z</time>
      </trkpt>
      <trkpt lat="46.06803" lon="6.80585">
        <ele>837.93</ele>
        <time>2015-07-30T06:36:13Z</time>
      </trkpt>
      <trkpt lat="46.06798" lon="6.80657">
        <ele>838.89</ele>
        <time>2015-07-30T06:37:18Z</time>
      </trkpt>
      <trkpt lat="46.06819" lon="6.80748">
        <ele>841.29</ele>
        <time>2015-07-30T06:38:23Z</time>
      </trkpt>
      <trkpt lat="46.0684" lon="6.80847">
        <ele>842.73</ele>
        <time>2015-07-30T06:39:28Z</time>
      </trkpt>
      <trkpt lat="46.06877" lon="6.80933">
        <ele>843.69</ele>
        <time>2015-07-30T06:40:33Z</time>
      </trkpt>
      <trkpt lat="46.06894" lon="6.81036">
        <ele>845.14</ele>
        <time>2015-07-30T06:41:38Z</time>
      </trkpt>
      <trkpt lat="46.06913" lon="6.81148">
        <ele>847.06</ele>
        <time>2015-07-30T06:42:43Z</time>
      </trkpt>
      <trkpt lat="46.06904" lon="6.81245">
        <ele>848.98</ele>
        <time>2015-07-30T06:43:48Z</time>
      </trkpt>
      <trkpt lat="46.0693" lon="6.81327">
        <ele>849.46</ele>
        <time>2015-07-30T06:44:53Z</time>
      </trkpt>
      <trkpt lat="46.0697" lon="6.81405">
        <ele>850.9</ele>
        <time>2015-07-30T06:45:58Z</time>
      </trkpt>
      <trkpt lat="46.07008" lon="6.81499">
        <ele>852.35</ele>
        <time>2015-07-30T06:47:03Z</time>
      </trkpt>
      <trkpt lat="46.07041" lon="6.81602">
        <ele>854.27</ele>
        <time>2015-07-30T06:48:08Z</time>
      </trkpt>
      <trkpt lat="46.07062" lon="6.81703">
        <ele>861</ele>
        <time>2015-07-30T06:49:13Z</time>
      </trkpt>
      <trkpt lat="46.07077" lon="6.81801">
        <ele>868.21</ele>
        <time>2015-07-30T06:50:18Z</time>
      </trkpt>
      <trkpt lat="46.07088" lon="6.81899">
        <ele>864.84</ele>
        <time>2015-07-30T06:51:23Z</time>
      </trkpt>
      <trkpt lat="46.07113" lon="6.81965">
        <ele>865.32</ele>
        <time>2015-07-30T06:52:28Z</time>
      </trkpt>
      <trkpt lat="46.07137" lon="6.82034">
        <ele>863.88</ele>
        <time>2015-07-30T06:53:33Z</time>
      </trkpt>
      <trkpt lat="46.07161" lon="6.82082">
        <ele>863.88</ele>
        <time>2015-07-30T06:54:38Z</time>
      </trkpt>
      <trkpt lat="46.07197" lon="6.82172">
        <ele>866.77</ele>
        <time>2015-07-30T06:55:43Z</time>
      </trkpt>
      <trkpt lat="46.07221" lon="6.82197">
        <ele>868.69</ele>
        <time>2015-07-30T06:56:48Z</time>
      </trkpt>
      <trkpt lat="46.07294" lon="6.82257">
        <ele>872.53</ele>
        <time>2015-07-30T06:57:53Z</time>
      </trkpt>
      <trkpt lat="46.07301" lon="6.82352">
        <ele>876.38</ele>
        <time>2015-07-30T06:58:58Z</time>
      </trkpt>
      <trkpt lat="46.07323" lon="6.82455">
        <ele>881.19</ele>
        <time>2015-07-30T07:00:03Z</time>
      </trkpt>
      <trkpt lat="46.07359" lon="6.82554">
        <ele>888.4</ele>
        <time>2015-07-30T07:01:08Z</time>
      </trkpt>
      <trkpt lat="46.0738" lon="6.82645">
        <ele>894.64</ele>
        <time>2015-07-30T07:02:13Z</time>
      </trkpt>
      <trkpt lat="46.07411" lon="6.82717">
        <ele>898.97</ele>
        <time>2015-07-30T07:03:18Z</time>
      </trkpt>
      <trkpt lat="46.07457" lon="6.82781">
        <ele>899.93</ele>
        <time>2015-07-30T07:04:23Z</time>
      </trkpt>
      <trkpt lat="46.07503" lon="6.82861">
        <ele>902.82</ele>
        <time>2015-07-30T07:05:28Z</time>
      </trkpt>
      <trkpt lat="46.07535" lon="6.82899">
        <ele>902.82</ele>
        <time>2015-07-30T07:06:16Z</time>
      </trkpt>
    </trkseg>
  </trk>
</gpx>